Time;durP1;ratioP1;P1;durP2;ratioP2;P2;SDS_P1;SDS_P2;PMS_P1;PMS_P2;Temp;Humidity;BMP_temperature;BMP_pressure;BME280_temperature;BME280_humidity;BME280_pressure;Samples;Min_cycle;Max_cycle;Signal;HPM_P1;HPM_P2
2023/03/21 00:02:03;;;;;;;3.78;2.60;;;;;;;;;;5104209;28;20195;-68
2023/03/21 00:04:29;;;;;;;4.35;3.00;;;;;;;;;;5104200;28;20200;-69
2023/03/21 00:06:55;;;;;;;4.00;2.80;;;;;;;;;;5104132;28;20195;-69
2023/03/21 00:09:22;;;;;;;2.72;2.60;;;;;;;;;;5104204;28;20227;-69
2023/03/21 00:11:48;;;;;;;2.90;2.70;;;;;;;;;;5104061;28;20196;-69
2023/03/21 00:14:18;;;;;;;3.08;2.75;;;;;;;;;;5104199;28;20200;-69
2023/03/21 00:16:49;;;;;;;2.88;2.67;;;;;;;;;;5104572;28;20241;-69
2023/03/21 00:19:15;;;;;;;3.15;2.95;;;;;;;;;;5103879;28;20428;-69
2023/03/21 00:21:42;;;;;;;2.75;2.55;;;;;;;;;;5102934;28;20200;-69
2023/03/21 00:24:08;;;;;;;2.92;2.72;;;;;;;;;;5103872;28;20195;-68
2023/03/21 00:26:34;;;;;;;3.20;3.00;;;;;;;;;;5103815;28;20241;-68
2023/03/21 00:29:00;;;;;;;4.53;3.10;;;;;;;;;;5103598;28;20226;-68
2023/03/21 00:31:28;;;;;;;3.05;2.85;;;;;;;;;;5103642;28;20250;-68
2023/03/21 00:33:54;;;;;;;2.60;2.40;;;;;;;;;;5103868;28;20237;-68
2023/03/21 00:36:24;;;;;;;2.83;2.72;;;;;;;;;;5103847;28;20195;-68
2023/03/21 00:38:51;;;;;;;2.50;2.40;;;;;;;;;;5103500;28;20237;-68
2023/03/21 00:41:17;;;;;;;5.18;2.40;;;;;;;;;;5103791;28;20394;-68
2023/03/21 00:43:43;;;;;;;2.58;2.47;;;;;;;;;;5103713;28;20196;-69
2023/03/21 00:46:10;;;;;;;2.50;2.40;;;;;;;;;;5103258;28;20207;-69
2023/03/21 00:48:37;;;;;;;2.38;2.17;;;;;;;;;;5103441;28;20222;-68
2023/03/21 00:51:11;;;;;;;2.08;1.95;;;;;;;;;;5103135;28;20237;-68
2023/03/21 00:53:37;;;;;;;2.33;2.13;;;;;;;;;;5103501;28;20200;-68
2023/03/21 00:56:04;;;;;;;2.67;2.33;;;;;;;;;;5103342;28;20545;-69
2023/03/21 00:58:30;;;;;;;2.45;2.35;;;;;;;;;;5103144;28;20252;-69
2023/03/21 01:00:57;;;;;;;2.38;2.28;;;;;;;;;;5103088;28;20203;-68
2023/03/21 01:03:25;;;;;;;2.42;2.10;;;;;;;;;;5103367;28;20196;-68
2023/03/21 01:06:05;;;;;;;1.67;1.58;;;;;;;;;;5103137;28;20523;-69
2023/03/21 01:08:32;;;;;;;2.80;2.63;;;;;;;;;;5103024;28;20545;-68
2023/03/21 01:11:01;;;;;;;3.20;2.47;;;;;;;;;;5102639;28;20423;-68
2023/03/21 01:13:27;;;;;;;2.33;2.22;;;;;;;;;;5103001;28;20518;-68
2023/03/21 01:15:55;;;;;;;3.22;2.70;;;;;;;;;;5103100;28;20426;-68
2023/03/21 01:18:23;;;;;;;2.55;2.45;;;;;;;;;;5102925;28;20262;-68
2023/03/21 01:20:50;;;;;;;2.83;2.70;;;;;;;;;;5102823;28;20233;-68
2023/03/21 01:23:18;;;;;;;5.93;2.50;;;;;;;;;;5102978;28;20207;-68
2023/03/21 01:25:44;;;;;;;3.28;3.03;;;;;;;;;;5102699;28;20511;-68
2023/03/21 01:28:10;;;;;;;2.78;2.40;;;;;;;;;;5102736;28;20457;-68
2023/03/21 01:30:37;;;;;;;3.60;3.10;;;;;;;;;;5102559;28;20495;-68
2023/03/21 01:33:03;;;;;;;2.80;2.60;;;;;;;;;;5102509;28;20217;-68
2023/03/21 01:35:29;;;;;;;2.47;2.38;;;;;;;;;;5102821;28;20195;-68
2023/03/21 01:37:56;;;;;;;3.05;2.65;;;;;;;;;;5102590;28;20192;-68
2023/03/21 01:40:25;;;;;;;2.95;2.63;;;;;;;;;;5102328;28;20241;-68
2023/03/21 01:42:51;;;;;;;3.08;2.88;;;;;;;;;;5102755;28;20195;-68
2023/03/21 01:45:36;;;;;;;2.60;2.50;;;;;;;;;;5102691;28;20206;-68
2023/03/21 01:48:03;;;;;;;3.28;2.60;;;;;;;;;;5102442;28;20410;-68
2023/03/21 01:50:29;;;;;;;2.85;2.67;;;;;;;;;;5102294;28;20215;-68
2023/03/21 01:52:55;;;;;;;2.92;2.65;;;;;;;;;;5102139;28;20381;-68
2023/03/21 01:55:22;;;;;;;3.33;3.00;;;;;;;;;;5102741;28;20203;-68
2023/03/21 01:57:51;;;;;;;3.22;2.92;;;;;;;;;;5102552;28;20238;-68
2023/03/21 02:00:19;;;;;;;4.88;2.80;;;;;;;;;;5102230;28;20499;-68
2023/03/21 02:02:50;;;;;;;3.40;3.10;;;;;;;;;;5102406;28;20394;-68
2023/03/21 02:05:18;;;;;;;3.13;2.97;;;;;;;;;;5102259;28;20219;-68
2023/03/21 02:07:44;;;;;;;4.03;2.90;;;;;;;;;;5102341;28;20214;-68
2023/03/21 02:10:13;;;;;;;3.28;3.03;;;;;;;;;;5102000;28;20242;-68
2023/03/21 02:12:39;;;;;;;5.78;3.35;;;;;;;;;;5102252;28;20221;-68
2023/03/21 02:15:08;;;;;;;3.95;2.97;;;;;;;;;;5102217;28;20507;-68
2023/03/21 02:17:36;;;;;;;4.00;3.03;;;;;;;;;;5102504;28;20196;-68
2023/03/21 02:20:24;;;;;;;3.13;2.85;;;;;;;;;;5102007;28;20395;-68
2023/03/21 02:23:10;;;;;;;4.53;3.13;;;;;;;;;;5102370;28;20195;-68
2023/03/21 02:25:54;;;;;;;2.85;2.72;;;;;;;;;;5102160;28;20249;-68
2023/03/21 02:28:23;;;;;;;6.05;3.58;;;;;;;;;;5101783;28;20246;-68
2023/03/21 02:31:05;;;;;;;6.35;3.45;;;;;;;;;;5101786;28;20196;-68
2023/03/21 02:33:46;;;;;;;3.67;3.38;;;;;;;;;;5102070;28;20241;-68
2023/03/21 02:36:17;;;;;;;4.60;3.80;;;;;;;;;;5102007;28;20196;-68
2023/03/21 02:38:47;;;;;;;3.63;3.33;;;;;;;;;;5102334;28;20202;-68
2023/03/21 02:41:17;;;;;;;6.15;3.70;;;;;;;;;;5101921;28;20210;-68
2023/03/21 02:43:44;;;;;;;4.10;3.63;;;;;;;;;;5102028;28;20571;-68
2023/03/21 02:49:16;;;;;;;3.17;2.97;;;;;;;;;;5105081;28;20201;-68
2023/03/21 02:51:43;;;;;;;4.10;3.80;;;;;;;;;;5105785;28;20200;-68
2023/03/21 02:54:12;;;;;;;5.80;3.95;;;;;;;;;;5105752;28;20195;-68
2023/03/21 02:56:40;;;;;;;4.40;3.80;;;;;;;;;;5105591;28;20241;-68
2023/03/21 02:59:06;;;;;;;5.07;3.50;;;;;;;;;;5105572;28;20263;-68
2023/03/21 03:01:33;;;;;;;5.60;3.72;;;;;;;;;;5105663;28;20195;-68
2023/03/21 03:03:59;;;;;;;4.25;3.75;;;;;;;;;;5105474;28;20200;-68
2023/03/21 03:06:27;;;;;;;4.43;4.13;;;;;;;;;;5105565;28;20196;-68
2023/03/21 03:09:05;;;;;;;4.43;4.03;;;;;;;;;;5105316;28;20223;-68
2023/03/21 03:11:34;;;;;;;5.35;4.07;;;;;;;;;;5105307;28;20191;-68
2023/03/21 03:14:19;;;;;;;4.55;4.10;;;;;;;;;;5105449;28;20254;-68
2023/03/21 03:16:49;;;;;;;3.83;3.63;;;;;;;;;;5105704;28;20518;-68
2023/03/21 03:19:21;;;;;;;5.07;4.57;;;;;;;;;;5105191;28;20198;-68
2023/03/21 03:21:49;;;;;;;5.25;4.75;;;;;;;;;;5105186;28;20396;-68
2023/03/21 03:24:19;;;;;;;4.68;4.18;;;;;;;;;;5105056;28;20196;-68
2023/03/21 03:26:48;;;;;;;4.68;4.03;;;;;;;;;;5104973;28;20253;-68
2023/03/21 03:29:15;;;;;;;4.53;4.13;;;;;;;;;;5104953;28;20265;-68
2023/03/21 03:31:44;;;;;;;5.53;4.68;;;;;;;;;;5104973;28;20417;-68
2023/03/21 03:34:12;;;;;;;5.68;4.55;;;;;;;;;;5105189;28;20196;-68
2023/03/21 03:36:40;;;;;;;6.35;4.30;;;;;;;;;;5105117;28;20253;-68
2023/03/21 03:39:07;;;;;;;5.35;4.57;;;;;;;;;;5104860;28;20227;-68
2023/03/21 03:41:35;;;;;;;4.28;3.97;;;;;;;;;;5104505;28;20534;-68
2023/03/21 03:44:03;;;;;;;4.95;4.45;;;;;;;;;;5104924;28;20230;-68
2023/03/21 03:46:32;;;;;;;5.93;4.40;;;;;;;;;;5104531;28;20391;-68
2023/03/21 03:49:00;;;;;;;4.47;3.80;;;;;;;;;;5104496;28;20257;-67
2023/03/21 03:51:28;;;;;;;6.30;4.40;;;;;;;;;;5104446;28;20386;-67
2023/03/21 03:53:57;;;;;;;5.72;4.10;;;;;;;;;;5104388;28;20200;-67
2023/03/21 03:56:24;;;;;;;6.00;4.10;;;;;;;;;;5104513;28;20195;-67
2023/03/21 03:58:50;;;;;;;4.65;4.13;;;;;;;;;;5104250;28;20198;-67
2023/03/21 04:01:18;;;;;;;7.90;4.22;;;;;;;;;;5104156;28;20378;-67
2023/03/21 04:03:46;;;;;;;4.88;4.07;;;;;;;;;;5104314;28;20199;-69
2023/03/21 04:06:13;;;;;;;5.13;4.50;;;;;;;;;;5104258;28;20196;-68
2023/03/21 04:08:39;;;;;;;5.30;4.20;;;;;;;;;;5104000;28;20247;-68
2023/03/21 04:11:06;;;;;;;4.70;4.15;;;;;;;;;;5104039;28;20196;-68
2023/03/21 04:13:33;;;;;;;4.72;4.32;;;;;;;;;;5104147;28;20267;-68
2023/03/21 04:15:59;;;;;;;6.28;4.32;;;;;;;;;;5104140;28;20195;-69
2023/03/21 04:18:27;;;;;;;5.97;4.50;;;;;;;;;;5103954;28;20191;-69
2023/03/21 04:20:53;;;;;;;7.78;4.65;;;;;;;;;;5103696;28;20211;-67
2023/03/21 04:23:20;;;;;;;5.68;4.25;;;;;;;;;;5103916;28;20199;-67
2023/03/21 04:25:46;;;;;;;7.13;5.78;;;;;;;;;;5104060;28;20476;-67
2023/03/21 04:28:13;;;;;;;5.40;4.88;;;;;;;;;;5103656;28;20261;-67
2023/03/21 04:30:40;;;;;;;4.75;4.35;;;;;;;;;;5103663;28;20233;-69
2023/03/21 04:33:07;;;;;;;4.78;4.28;;;;;;;;;;5103791;28;20441;-69
2023/03/21 04:35:35;;;;;;;7.88;4.20;;;;;;;;;;5103524;28;20202;-67
2023/03/21 04:38:01;;;;;;;5.50;4.40;;;;;;;;;;5103786;28;20425;-69
2023/03/21 04:40:28;;;;;;;5.00;4.35;;;;;;;;;;5103614;28;20238;-69
2023/03/21 04:42:54;;;;;;;7.10;4.90;;;;;;;;;;5103715;28;20200;-69
2023/03/21 04:45:20;;;;;;;5.45;4.00;;;;;;;;;;5103993;28;20203;-68
2023/03/21 04:47:46;;;;;;;6.72;4.55;;;;;;;;;;5103398;28;20202;-68
2023/03/21 04:50:14;;;;;;;4.43;3.60;;;;;;;;;;5102997;28;20220;-68
2023/03/21 04:52:42;;;;;;;7.38;4.43;;;;;;;;;;5103492;28;20250;-68
2023/03/21 04:55:08;;;;;;;5.30;3.78;;;;;;;;;;5103312;28;20196;-68
2023/03/21 04:57:35;;;;;;;6.43;4.05;;;;;;;;;;5103199;28;20223;-68
2023/03/21 05:00:01;;;;;;;4.60;4.13;;;;;;;;;;5103137;28;20264;-68
2023/03/21 05:02:27;;;;;;;5.72;4.82;;;;;;;;;;5103534;28;20200;-68
2023/03/21 05:04:54;;;;;;;4.88;3.80;;;;;;;;;;5103105;28;20428;-68
2023/03/21 05:07:25;;;;;;;6.57;3.78;;;;;;;;;;5102663;28;20195;-68
2023/03/21 05:09:52;;;;;;;5.18;4.00;;;;;;;;;;5102851;28;20577;-68
2023/03/21 05:12:19;;;;;;;5.32;3.67;;;;;;;;;;5103067;28;20493;-68
2023/03/21 05:14:46;;;;;;;4.82;3.97;;;;;;;;;;5103376;28;20333;-68
2023/03/21 05:17:23;;;;;;;4.97;3.92;;;;;;;;;;5102722;28;20264;-69
2023/03/21 05:19:51;;;;;;;5.60;4.00;;;;;;;;;;5103287;28;20199;-69
2023/03/21 05:22:18;;;;;;;4.57;4.10;;;;;;;;;;5102974;28;20195;-69
2023/03/21 05:24:48;;;;;;;4.03;3.72;;;;;;;;;;5102816;28;20503;-69
2023/03/21 05:27:32;;;;;;;3.72;3.42;;;;;;;;;;5102597;28;20267;-69
2023/03/21 05:29:59;;;;;;;4.28;3.97;;;;;;;;;;5102784;28;20262;-69
2023/03/21 05:32:25;;;;;;;4.57;4.18;;;;;;;;;;5102582;28;20199;-69
2023/03/21 05:34:51;;;;;;;4.53;4.13;;;;;;;;;;5102649;28;20196;-69
2023/03/21 05:37:17;;;;;;;4.03;3.65;;;;;;;;;;5102614;28;20200;-69
2023/03/21 05:39:44;;;;;;;5.30;4.55;;;;;;;;;;5102653;28;20203;-69
2023/03/21 05:42:10;;;;;;;4.60;4.28;;;;;;;;;;5102346;28;20196;-69
2023/03/21 05:44:39;;;;;;;4.80;4.40;;;;;;;;;;5102742;28;20204;-69
2023/03/21 05:47:05;;;;;;;6.63;5.00;;;;;;;;;;5102962;28;20204;-69
2023/03/21 05:49:32;;;;;;;6.05;4.78;;;;;;;;;;5102732;28;20316;-69
2023/03/21 05:51:58;;;;;;;6.00;4.65;;;;;;;;;;5102270;28;20204;-69
2023/03/21 05:54:24;;;;;;;4.28;3.97;;;;;;;;;;5102286;28;20203;-69
2023/03/21 05:56:50;;;;;;;6.20;4.97;;;;;;;;;;5102172;28;20203;-69
2023/03/21 05:59:17;;;;;;;4.47;4.18;;;;;;;;;;5102583;28;20199;-69
2023/03/21 06:01:44;;;;;;;5.18;4.78;;;;;;;;;;5102477;28;20344;-69
2023/03/21 06:04:11;;;;;;;6.45;4.90;;;;;;;;;;5102486;28;20206;-69
2023/03/21 06:06:37;;;;;;;7.40;5.03;;;;;;;;;;5102413;28;20264;-69
2023/03/21 06:09:03;;;;;;;5.18;4.78;;;;;;;;;;5101922;28;20219;-69
2023/03/21 06:11:31;;;;;;;6.57;4.95;;;;;;;;;;5102167;28;20196;-69
2023/03/21 06:13:57;;;;;;;5.32;4.43;;;;;;;;;;5102626;28;20196;-69
2023/03/21 06:16:24;;;;;;;6.63;5.07;;;;;;;;;;5102093;28;20203;-69
2023/03/21 06:18:51;;;;;;;7.13;5.15;;;;;;;;;;5102193;28;20202;-69
2023/03/21 06:21:17;;;;;;;7.57;4.90;;;;;;;;;;5105366;28;20266;-69
2023/03/21 06:23:44;;;;;;;5.97;4.65;;;;;;;;;;5106009;28;20425;-69
2023/03/21 06:26:10;;;;;;;8.40;5.30;;;;;;;;;;5106110;28;20372;-69
2023/03/21 06:28:36;;;;;;;5.97;5.15;;;;;;;;;;5106118;28;20227;-69
2023/03/21 06:31:03;;;;;;;5.35;4.90;;;;;;;;;;5105940;28;20219;-69
2023/03/21 06:33:29;;;;;;;5.40;4.90;;;;;;;;;;5105817;28;20222;-69
2023/03/21 06:35:57;;;;;;;8.90;5.00;;;;;;;;;;5106042;28;20577;-69
2023/03/21 06:38:24;;;;;;;5.30;4.72;;;;;;;;;;5105613;28;20583;-69
2023/03/21 06:40:50;;;;;;;5.35;4.93;;;;;;;;;;5105690;28;20206;-69
2023/03/21 06:43:17;;;;;;;4.72;4.43;;;;;;;;;;5105999;28;20245;-69
2023/03/21 06:45:43;;;;;;;4.70;4.28;;;;;;;;;;5105994;28;20196;-69
2023/03/21 06:48:10;;;;;;;7.95;5.03;;;;;;;;;;5105819;28;20518;-69
2023/03/21 06:50:36;;;;;;;5.05;4.53;;;;;;;;;;5105723;28;20219;-69
2023/03/21 06:53:04;;;;;;;5.25;4.45;;;;;;;;;;5105696;28;20196;-69
2023/03/21 06:55:30;;;;;;;7.10;4.68;;;;;;;;;;5105879;28;20223;-69
2023/03/21 06:57:57;;;;;;;4.80;4.32;;;;;;;;;;5105768;28;20195;-69
2023/03/21 07:00:23;;;;;;;4.93;4.45;;;;;;;;;;5105446;28;20199;-69
2023/03/21 07:02:50;;;;;;;5.35;4.20;;;;;;;;;;5105796;28;20202;-69
2023/03/21 07:05:17;;;;;;;6.38;4.75;;;;;;;;;;5105688;28;20203;-69
2023/03/21 07:07:43;;;;;;;8.27;4.80;;;;;;;;;;5105296;28;20514;-69
2023/03/21 07:10:11;;;;;;;6.78;4.38;;;;;;;;;;5105289;28;20222;-69
2023/03/21 07:12:38;;;;;;;5.13;4.63;;;;;;;;;;5105453;28;20253;-69
2023/03/21 07:15:05;;;;;;;5.10;4.60;;;;;;;;;;5105455;28;20202;-69
2023/03/21 07:17:32;;;;;;;5.22;4.43;;;;;;;;;;5105439;28;20196;-69
2023/03/21 07:19:58;;;;;;;6.63;4.85;;;;;;;;;;5105021;28;20191;-69
2023/03/21 07:22:24;;;;;;;5.15;4.68;;;;;;;;;;5105171;28;20233;-69
2023/03/21 07:24:51;;;;;;;6.78;5.07;;;;;;;;;;5105253;28;20507;-69
2023/03/21 07:27:18;;;;;;;5.20;4.80;;;;;;;;;;5096273;28;20451;-60
2023/03/21 07:29:46;;;;;;;6.82;4.50;;;;;;;;;;5083508;28;20231;-60
2023/03/21 07:32:12;;;;;;;8.50;4.93;;;;;;;;;;5090388;28;20243;-60
2023/03/21 07:34:38;;;;;;;7.80;5.07;;;;;;;;;;5099265;28;20212;-60
2023/03/21 07:37:05;;;;;;;5.68;4.60;;;;;;;;;;5094306;28;20245;-59
2023/03/21 07:39:33;;;;;;;6.25;5.43;;;;;;;;;;5087771;28;20514;-59
2023/03/21 07:42:00;;;;;;;11.00;5.15;;;;;;;;;;5086296;28;20271;-59
2023/03/21 07:44:28;;;;;;;6.18;4.68;;;;;;;;;;5087726;28;20232;-59
2023/03/21 07:46:54;;;;;;;7.82;4.40;;;;;;;;;;5097237;28;20216;-60
2023/03/21 07:49:21;;;;;;;4.32;4.00;;;;;;;;;;5097765;28;20219;-60
2023/03/21 07:51:47;;;;;;;4.05;3.75;;;;;;;;;;5097598;28;20537;-60
2023/03/21 07:54:13;;;;;;;10.85;4.32;;;;;;;;;;5097904;28;20426;-60
2023/03/21 07:56:40;;;;;;;6.13;3.90;;;;;;;;;;5098318;28;20532;-60
2023/03/21 07:59:07;;;;;;;5.35;4.55;;;;;;;;;;5097828;28;20542;-60
2023/03/21 08:01:34;;;;;;;4.63;4.20;;;;;;;;;;5097699;28;20537;-60
2023/03/21 08:04:00;;;;;;;4.45;4.07;;;;;;;;;;5098301;28;20562;-59
2023/03/21 08:06:27;;;;;;;4.32;3.92;;;;;;;;;;5097390;28;20259;-60
2023/03/21 08:08:53;;;;;;;4.90;3.97;;;;;;;;;;5097602;28;20203;-59
2023/03/21 08:11:20;;;;;;;3.63;3.33;;;;;;;;;;5098051;28;20243;-60
2023/03/21 08:13:46;;;;;;;7.78;3.92;;;;;;;;;;5097836;28;20208;-60
2023/03/21 08:16:13;;;;;;;6.80;3.90;;;;;;;;;;5098155;28;20219;-60
2023/03/21 08:18:41;;;;;;;5.03;4.13;;;;;;;;;;5097975;28;20215;-60
2023/03/21 08:21:07;;;;;;;35.10;22.52;;;;;;;;;;5097684;28;20211;-60
2023/03/21 08:23:34;;;;;;;6.10;4.65;;;;;;;;;;5098000;28;20216;-60
2023/03/21 08:26:00;;;;;;;7.47;3.33;;;;;;;;;;5098546;28;20211;-60
2023/03/21 08:28:27;;;;;;;4.22;3.40;;;;;;;;;;5098121;28;20231;-60
2023/03/21 08:30:53;;;;;;;5.20;3.60;;;;;;;;;;5097460;28;20303;-60
2023/03/21 08:33:20;;;;;;;3.85;3.55;;;;;;;;;;5096456;28;20661;-60
2023/03/21 08:35:48;;;;;;;4.63;3.80;;;;;;;;;;5096964;28;20215;-60
2023/03/21 08:38:14;;;;;;;4.22;3.50;;;;;;;;;;5092960;28;20211;-60
2023/03/21 08:40:41;;;;;;;6.25;3.55;;;;;;;;;;5097291;28;20234;-60
2023/03/21 08:43:07;;;;;;;4.80;3.40;;;;;;;;;;5095363;28;20219;-60
2023/03/21 08:45:33;;;;;;;3.65;3.45;;;;;;;;;;5097250;28;20245;-60
2023/03/21 08:48:00;;;;;;;3.85;3.55;;;;;;;;;;5097848;28;20273;-60
2023/03/21 08:50:28;;;;;;;3.35;3.05;;;;;;;;;;5097823;28;20232;-59
2023/03/21 08:52:55;;;;;;;3.45;3.13;;;;;;;;;;5097032;28;20212;-60
2023/03/21 08:55:22;;;;;;;5.10;3.38;;;;;;;;;;5097988;28;20223;-60
2023/03/21 08:57:48;;;;;;;3.90;2.95;;;;;;;;;;5098159;28;20215;-60
2023/03/21 09:00:16;;;;;;;2.97;2.60;;;;;;;;;;5095437;28;20231;-59
2023/03/21 09:02:43;;;;;;;2.70;2.42;;;;;;;;;;5096176;28;20268;-59
2023/03/21 09:05:10;;;;;;;3.10;2.90;;;;;;;;;;5095441;28;20469;-59
2023/03/21 09:07:37;;;;;;;4.50;3.33;;;;;;;;;;5095775;28;20211;-59
2023/03/21 09:10:05;;;;;;;4.57;2.83;;;;;;;;;;5096184;28;20231;-59
2023/03/21 09:12:32;;;;;;;3.20;2.90;;;;;;;;;;5095930;28;20361;-59
2023/03/21 09:14:58;;;;;;;3.22;3.00;;;;;;;;;;5095767;28;20540;-59
2023/03/21 09:17:25;;;;;;;4.25;3.00;;;;;;;;;;5095923;28;20458;-59
2023/03/21 09:19:52;;;;;;;4.93;3.00;;;;;;;;;;5095411;28;20208;-59
2023/03/21 09:22:20;;;;;;;3.55;3.28;;;;;;;;;;5096494;28;20212;-60
2023/03/21 09:24:47;;;;;;;3.35;3.15;;;;;;;;;;5096127;28;20212;-58
2023/03/21 09:27:16;;;;;;;3.20;2.90;;;;;;;;;;5096280;28;20234;-60
2023/03/21 09:29:43;;;;;;;3.15;2.95;;;;;;;;;;5095830;28;20200;-60
2023/03/21 09:32:10;;;;;;;2.70;2.40;;;;;;;;;;5095593;28;20243;-60
2023/03/21 09:34:40;;;;;;;3.00;2.80;;;;;;;;;;5095416;28;20212;-60
2023/03/21 09:37:11;;;;;;;2.70;2.50;;;;;;;;;;5095549;28;20208;-60
2023/03/21 09:39:39;;;;;;;3.58;2.35;;;;;;;;;;5095458;28;20211;-60
2023/03/21 09:42:10;;;;;;;3.30;2.78;;;;;;;;;;5089899;28;20215;-60
2023/03/21 09:44:50;;;;;;;2.40;2.20;;;;;;;;;;5095283;28;20226;-60
2023/03/21 09:47:21;;;;;;;2.78;2.65;;;;;;;;;;5095178;28;20215;-60
2023/03/21 09:49:50;;;;;;;2.78;2.67;;;;;;;;;;5095921;28;20246;-59
2023/03/21 09:52:19;;;;;;;2.50;2.40;;;;;;;;;;5094848;28;20215;-59
2023/03/21 09:54:45;;;;;;;2.65;2.47;;;;;;;;;;5094998;28;20211;-60
2023/03/21 09:57:18;;;;;;;2.67;2.47;;;;;;;;;;5096266;28;20249;-60
2023/03/21 09:59:48;;;;;;;2.58;2.38;;;;;;;;;;5095508;28;20211;-59
2023/03/21 10:02:21;;;;;;;2.35;2.25;;;;;;;;;;5093927;28;20215;-60
2023/03/21 10:04:48;;;;;;;2.42;2.10;;;;;;;;;;5095887;28;20234;-59
2023/03/21 10:07:17;;;;;;;3.95;2.33;;;;;;;;;;5094432;28;20215;-59
2023/03/21 10:09:43;;;;;;;2.10;2.00;;;;;;;;;;5094288;28;20309;-59
2023/03/21 10:12:14;;;;;;;2.20;2.00;;;;;;;;;;5095572;28;20238;-60
2023/03/21 10:14:42;;;;;;;2.13;2.03;;;;;;;;;;5094770;28;20439;-60
2023/03/21 10:17:18;;;;;;;2.20;2.00;;;;;;;;;;5095968;28;20212;-60
2023/03/21 10:19:46;;;;;;;2.10;1.95;;;;;;;;;;5089615;28;20527;-60
2023/03/21 10:22:13;;;;;;;2.33;1.88;;;;;;;;;;5095299;28;20249;-59
2023/03/21 10:24:39;;;;;;;2.53;2.42;;;;;;;;;;5095494;28;20253;-59
2023/03/21 10:27:05;;;;;;;2.78;2.05;;;;;;;;;;5095518;28;20218;-60
2023/03/21 10:29:35;;;;;;;2.17;2.08;;;;;;;;;;5096565;28;20211;-60
2023/03/21 10:32:02;;;;;;;2.13;1.85;;;;;;;;;;5095406;28;20231;-60
2023/03/21 10:34:32;;;;;;;1.75;1.65;;;;;;;;;;5096520;28;20250;-60
2023/03/21 10:36:59;;;;;;;2.17;1.80;;;;;;;;;;5090525;28;20204;-59
2023/03/21 10:39:27;;;;;;;1.55;1.55;;;;;;;;;;5083891;28;20204;-60
2023/03/21 10:41:53;;;;;;;2.50;1.73;;;;;;;;;;5084284;28;20204;-60
2023/03/21 10:44:20;;;;;;;2.10;2.00;;;;;;;;;;5094756;28;20446;-60
2023/03/21 10:46:51;;;;;;;1.75;1.67;;;;;;;;;;5094717;28;20537;-60
2023/03/21 10:49:20;;;;;;;1.80;1.70;;;;;;;;;;5094176;28;20473;-61
2023/03/21 10:51:47;;;;;;;1.60;1.50;;;;;;;;;;5093430;28;20224;-60
2023/03/21 10:54:15;;;;;;;3.20;1.55;;;;;;;;;;5095113;28;20282;-59
2023/03/21 10:56:44;;;;;;;3.35;1.65;;;;;;;;;;5095078;28;20212;-60
2023/03/21 10:59:16;;;;;;;1.50;1.40;;;;;;;;;;5095972;28;20212;-60
2023/03/21 11:01:43;;;;;;;1.50;1.38;;;;;;;;;;5095083;28;20200;-60
2023/03/21 11:04:12;;;;;;;3.03;1.40;;;;;;;;;;5095331;28;20211;-60
2023/03/21 11:06:40;;;;;;;1.67;1.58;;;;;;;;;;5097580;28;20594;-60
2023/03/21 11:09:12;;;;;;;1.77;1.45;;;;;;;;;;5097877;28;20310;-60
2023/03/21 11:11:39;;;;;;;1.50;1.40;;;;;;;;;;5098698;28;20243;-60
2023/03/21 11:14:06;;;;;;;1.60;1.52;;;;;;;;;;5098696;28;20212;-60
2023/03/21 11:16:37;;;;;;;1.33;1.33;;;;;;;;;;5099390;28;20283;-60
2023/03/21 11:19:11;;;;;;;3.33;1.20;;;;;;;;;;5098801;28;20222;-60
2023/03/21 11:21:38;;;;;;;1.35;1.20;;;;;;;;;;5098796;28;20211;-60
2023/03/21 11:24:05;;;;;;;1.58;1.15;;;;;;;;;;5098331;28;20256;-61
2023/03/21 11:26:35;;;;;;;1.70;1.60;;;;;;;;;;5099159;28;20234;-60
2023/03/21 11:29:20;;;;;;;2.22;1.98;;;;;;;;;;5098342;28;20234;-59
2023/03/21 11:31:47;;;;;;;1.70;1.60;;;;;;;;;;5098422;28;20550;-60
2023/03/21 11:34:25;;;;;;;1.38;1.27;;;;;;;;;;5099361;28;20253;-61
2023/03/21 11:36:53;;;;;;;1.73;1.40;;;;;;;;;;5099317;28;20212;-59
2023/03/21 11:39:28;;;;;;;1.13;1.02;;;;;;;;;;5098862;28;20215;-59
2023/03/21 11:41:55;;;;;;;2.28;1.00;;;;;;;;;;5098797;28;20214;-59
2023/03/21 11:44:29;;;;;;;1.35;1.25;;;;;;;;;;5095600;28;20211;-61
2023/03/21 11:46:56;;;;;;;1.15;1.05;;;;;;;;;;5090532;28;20204;-59
2023/03/21 11:49:22;;;;;;;1.02;0.90;;;;;;;;;;5090274;28;20507;-59
2023/03/21 11:51:52;;;;;;;1.10;1.00;;;;;;;;;;5088826;28;20247;-59
2023/03/21 11:54:20;;;;;;;0.90;0.90;;;;;;;;;;5099032;28;20204;-60
2023/03/21 11:56:47;;;;;;;1.88;1.00;;;;;;;;;;5098837;28;20550;-62
2023/03/21 11:59:19;;;;;;;1.40;0.90;;;;;;;;;;5099045;28;20212;-63
2023/03/21 12:01:49;;;;;;;0.93;0.90;;;;;;;;;;5098055;28;20503;-62
2023/03/21 12:04:31;;;;;;;1.33;1.00;;;;;;;;;;5098514;28;20257;-62
2023/03/21 12:07:01;;;;;;;0.88;0.88;;;;;;;;;;5095836;28;20239;-62
2023/03/21 12:09:31;;;;;;;1.38;0.80;;;;;;;;;;5098675;28;20507;-62
2023/03/21 12:12:02;;;;;;;1.60;0.80;;;;;;;;;;5097450;28;20235;-61
2023/03/21 12:14:35;;;;;;;1.80;0.95;;;;;;;;;;5098756;28;20269;-61
2023/03/21 12:17:06;;;;;;;0.90;0.90;;;;;;;;;;5097331;28;20218;-61
2023/03/21 12:19:47;;;;;;;1.38;1.38;;;;;;;;;;5097125;28;20223;-61
2023/03/21 12:22:20;;;;;;;2.78;1.20;;;;;;;;;;5094601;28;20208;-60
2023/03/21 12:24:50;;;;;;;1.70;1.60;;;;;;;;;;5097479;28;20426;-61
2023/03/21 12:27:21;;;;;;;2.25;0.98;;;;;;;;;;5096449;28;20237;-60
2023/03/21 12:30:03;;;;;;;2.05;0.80;;;;;;;;;;5088573;28;20269;-61
2023/03/21 12:32:37;;;;;;;2.55;2.38;;;;;;;;;;5086119;28;20250;-61
2023/03/21 12:35:16;;;;;;;0.93;0.93;;;;;;;;;;5091341;28;20233;-61
2023/03/21 12:37:48;;;;;;;2.55;1.15;;;;;;;;;;5096938;28;20207;-61
2023/03/21 12:40:20;;;;;;;1.75;0.88;;;;;;;;;;5095990;28;20477;-60
2023/03/21 12:42:52;;;;;;;1.77;0.90;;;;;;;;;;5096842;28;20211;-61
2023/03/21 12:45:21;;;;;;;1.15;0.60;;;;;;;;;;5096272;28;20552;-61
2023/03/21 12:47:50;;;;;;;2.63;0.70;;;;;;;;;;5089258;28;20224;-59
2023/03/21 12:50:18;;;;;;;3.85;0.90;;;;;;;;;;5095863;28;20212;-60
2023/03/21 12:52:47;;;;;;;2.30;0.70;;;;;;;;;;5096588;28;20227;-59
2023/03/21 12:55:16;;;;;;;0.90;0.90;;;;;;;;;;5096693;28;20423;-59
2023/03/21 12:57:46;;;;;;;0.80;0.80;;;;;;;;;;5096801;28;20569;-60
2023/03/21 13:00:15;;;;;;;0.80;0.80;;;;;;;;;;5097142;28;20216;-59
2023/03/21 13:02:44;;;;;;;1.05;0.90;;;;;;;;;;5096151;28;20215;-60
2023/03/21 13:05:16;;;;;;;1.67;0.90;;;;;;;;;;5095713;28;20261;-60
2023/03/21 13:07:43;;;;;;;0.90;0.90;;;;;;;;;;5096463;28;20231;-60
2023/03/21 13:10:11;;;;;;;1.42;1.33;;;;;;;;;;5096727;28;20441;-60
2023/03/21 13:12:43;;;;;;;2.17;1.10;;;;;;;;;;5096891;28;20231;-59
2023/03/21 13:15:18;;;;;;;1.42;1.30;;;;;;;;;;5091069;28;20384;-60
2023/03/21 13:17:48;;;;;;;1.23;1.23;;;;;;;;;;5080869;28;20257;-59
2023/03/21 13:20:19;;;;;;;2.67;1.10;;;;;;;;;;5076548;28;20477;-59
2023/03/21 13:22:45;;;;;;;0.98;0.98;;;;;;;;;;5096079;28;20212;-59
2023/03/21 13:25:17;;;;;;;1.42;1.33;;;;;;;;;;5096754;28;20245;-59
2023/03/21 13:27:46;;;;;;;1.15;1.10;;;;;;;;;;5096834;28;20227;-59
2023/03/21 13:30:19;;;;;;;1.63;1.00;;;;;;;;;;5082301;28;20208;-59
2023/03/21 13:32:48;;;;;;;1.33;1.25;;;;;;;;;;5094141;28;20241;-58
2023/03/21 13:35:16;;;;;;;1.48;0.90;;;;;;;;;;5096000;28;20265;-59
2023/03/21 13:37:43;;;;;;;4.28;1.67;;;;;;;;;;5096149;28;20526;-59
2023/03/21 13:40:21;;;;;;;2.53;1.45;;;;;;;;;;5095812;28;20592;-59
2023/03/21 13:42:50;;;;;;;3.67;1.15;;;;;;;;;;5094892;28;20546;-61
2023/03/21 13:45:23;;;;;;;1.52;1.20;;;;;;;;;;5095864;28;20292;-61
2023/03/21 13:47:56;;;;;;;4.07;1.27;;;;;;;;;;5096050;28;20239;-61
2023/03/21 13:50:27;;;;;;;1.42;1.00;;;;;;;;;;5096189;28;20439;-61
2023/03/21 13:53:11;;;;;;;3.50;2.25;;;;;;;;;;5096004;28;20238;-61
2023/03/21 13:55:40;;;;;;;1.77;1.23;;;;;;;;;;5095122;28;20249;-61
2023/03/21 13:58:22;;;;;;;1.33;1.33;;;;;;;;;;5095991;28;20241;-61
2023/03/21 14:01:05;;;;;;;0.90;0.90;;;;;;;;;;5095838;28;20292;-61
2023/03/21 14:03:34;;;;;;;2.95;1.25;;;;;;;;;;5095797;28;20219;-61
2023/03/21 14:06:00;;;;;;;3.22;1.20;;;;;;;;;;5094957;28;20220;-61
2023/03/21 14:08:29;;;;;;;1.10;1.10;;;;;;;;;;5096053;28;20280;-61
2023/03/21 14:10:58;;;;;;;3.05;1.10;;;;;;;;;;5095722;28;20237;-61
2023/03/21 14:13:25;;;;;;;1.10;1.10;;;;;;;;;;5095793;28;20227;-61
2023/03/21 14:15:53;;;;;;;4.45;1.02;;;;;;;;;;5095591;28;20217;-61
2023/03/21 14:18:20;;;;;;;2.15;1.10;;;;;;;;;;5095855;28;20207;-61
2023/03/21 14:20:51;;;;;;;0.90;0.90;;;;;;;;;;5095951;28;20245;-61
2023/03/21 14:23:18;;;;;;;2.47;1.10;;;;;;;;;;5096058;28;20225;-61
2023/03/21 14:25:45;;;;;;;1.00;0.90;;;;;;;;;;5095635;28;20217;-61
2023/03/21 14:28:14;;;;;;;3.60;1.10;;;;;;;;;;5095637;28;20230;-61
2023/03/21 14:30:41;;;;;;;0.90;0.90;;;;;;;;;;5095793;28;20298;-61
2023/03/21 14:33:13;;;;;;;1.02;1.02;;;;;;;;;;5094940;28;20265;-61
2023/03/21 14:35:40;;;;;;;1.67;0.80;;;;;;;;;;5092406;28;20197;-61
2023/03/21 14:38:08;;;;;;;1.25;0.90;;;;;;;;;;5086227;28;20497;-61
2023/03/21 14:40:35;;;;;;;1.73;0.95;;;;;;;;;;5083884;28;20469;-61
2023/03/21 14:43:04;;;;;;;1.13;1.02;;;;;;;;;;5088027;28;20205;-61
2023/03/21 14:45:30;;;;;;;1.98;1.05;;;;;;;;;;5089289;28;20208;-60
2023/03/21 14:47:58;;;;;;;1.73;1.20;;;;;;;;;;5083566;28;20208;-61
2023/03/21 14:50:27;;;;;;;0.88;0.88;;;;;;;;;;5078978;28;20212;-61
2023/03/21 14:52:53;;;;;;;1.65;0.80;;;;;;;;;;5079143;28;20227;-61
2023/03/21 14:55:21;;;;;;;1.15;0.80;;;;;;;;;;5095229;28;20227;-61